createdAt,value
2022-09-24T00:01:38.538Z,8.02
2022-09-24T00:04:11.643Z,8.05
2022-09-24T00:06:44.928Z,8.09
2022-09-24T00:09:15.861Z,8.12
2022-09-24T00:11:45.426Z,8.16
2022-09-24T00:14:15.076Z,8.18
2022-09-24T00:16:46.653Z,8.19
2022-09-24T00:19:16.207Z,8.20
2022-09-24T00:21:45.517Z,8.23
2022-09-24T00:24:37.721Z,8.24
2022-09-24T00:27:06.811Z,8.29
2022-09-24T00:29:36.334Z,8.38
2022-09-24T00:32:07.251Z,8.49
2022-09-24T00:34:36.467Z,8.54
2022-09-24T00:37:05.557Z,8.57
2022-09-24T00:39:34.687Z,8.60
2022-09-24T00:42:03.931Z,8.61
2022-09-24T00:44:56.003Z,8.61
2022-09-24T00:47:34.948Z,8.59
2022-09-24T00:50:19.697Z,8.55
2022-09-24T00:52:54.677Z,8.52
2022-09-24T00:55:25.111Z,8.49
2022-09-24T00:57:57.916Z,8.47
2022-09-24T01:00:27.797Z,8.44
2022-09-24T01:03:02.960Z,8.42
2022-09-24T01:05:32.787Z,8.38
2022-09-24T01:08:02.131Z,8.37
2022-09-24T01:10:51.708Z,8.36
2022-09-24T01:13:38.028Z,8.33
2022-09-24T01:16:14.939Z,8.31
2022-09-24T01:18:51.436Z,8.26
2022-09-24T01:21:34.766Z,8.25
2022-09-24T01:24:37.147Z,8.25
2022-09-24T01:27:12.606Z,8.26
2022-09-24T01:30:05.432Z,8.29
2022-09-24T01:32:38.361Z,8.30
2022-09-24T01:35:15.978Z,8.29
2022-09-24T01:37:49.145Z,8.28
2022-09-24T01:40:20.553Z,8.27
2022-09-24T01:42:51.070Z,8.27
2022-09-24T01:45:22.344Z,8.23
2022-09-24T01:47:51.615Z,8.22
2022-09-24T01:50:21.148Z,8.26
2022-09-24T01:52:54.887Z,8.30
2022-09-24T01:55:28.177Z,8.32
2022-09-24T01:58:01.144Z,8.31
2022-09-24T02:00:31.811Z,8.31
2022-09-24T02:03:08.729Z,8.30
2022-09-24T02:05:41.135Z,8.26
2022-09-24T02:08:15.121Z,8.25
2022-09-24T02:10:51.083Z,8.23
2022-09-24T02:13:24.577Z,8.19
2022-09-24T02:15:58.984Z,8.16
2022-09-24T02:18:37.778Z,8.12
2022-09-24T02:21:09.532Z,8.09
2022-09-24T02:23:44.245Z,8.08
2022-09-24T02:26:13.401Z,8.09
2022-09-24T02:28:42.725Z,8.10
2022-09-24T02:31:15.802Z,8.14
2022-09-24T02:34:07.489Z,8.15
2022-09-24T02:36:37.237Z,8.15
2022-09-24T02:39:06.439Z,8.18
2022-09-24T02:41:36.049Z,8.18
2022-09-24T02:44:05.229Z,8.19
2022-09-24T02:46:35.793Z,8.20
2022-09-24T02:49:05.064Z,8.20
2022-09-24T02:51:34.169Z,8.21
2022-09-24T02:54:03.402Z,8.23
2022-09-24T02:56:32.610Z,8.25
2022-09-24T02:59:02.454Z,8.29
2022-09-24T03:01:33.528Z,8.29
2022-09-24T03:04:04.311Z,8.30
2022-09-24T03:06:33.849Z,8.31
2022-09-24T03:09:04.019Z,8.33
2022-09-24T03:11:33.977Z,8.37
2022-09-24T03:14:03.204Z,8.39
2022-09-24T03:16:32.817Z,8.40
2022-09-24T03:19:01.999Z,8.43
2022-09-24T03:21:32.502Z,8.47
2022-09-24T03:24:02.059Z,8.49
2022-09-24T03:26:31.814Z,8.52
2022-09-24T03:29:00.935Z,8.56
2022-09-24T03:31:29.122Z,8.60
2022-09-24T03:33:58.540Z,8.63
2022-09-24T03:36:27.993Z,8.66
2022-09-24T03:38:58.860Z,8.70
2022-09-24T03:41:28.964Z,8.72
2022-09-24T03:43:58.218Z,8.77
2022-09-24T03:46:28.457Z,8.78
2022-09-24T03:49:00.083Z,8.84
2022-09-24T03:51:29.217Z,8.87
2022-09-24T03:53:59.889Z,8.88
2022-09-24T03:56:29.002Z,8.89
2022-09-24T03:58:58.141Z,8.89
2022-09-24T04:01:31.162Z,8.90
2022-09-24T04:04:01.172Z,8.91
2022-09-24T04:06:31.020Z,8.89
2022-09-24T04:09:01.558Z,8.91
2022-09-24T04:11:30.670Z,8.89
2022-09-24T04:13:59.785Z,8.89
2022-09-24T04:16:29.109Z,8.88
2022-09-24T04:18:58.267Z,8.88
2022-09-24T04:21:27.383Z,8.90
2022-09-24T04:23:56.472Z,8.94
2022-09-24T04:26:27.034Z,8.94
2022-09-24T04:28:56.476Z,8.94
2022-09-24T04:31:25.946Z,8.95
2022-09-24T04:33:55.268Z,8.95
2022-09-24T04:36:24.362Z,8.95
2022-09-24T04:38:53.487Z,8.96
2022-09-24T04:41:22.677Z,8.95
2022-09-24T04:43:53.153Z,8.94
2022-09-24T04:46:22.474Z,8.93
2022-09-24T04:48:51.614Z,8.90
2022-09-24T04:51:21.329Z,8.89
2022-09-24T04:53:50.846Z,8.88
2022-09-24T04:56:19.969Z,8.88
2022-09-24T04:58:53.342Z,8.87
2022-09-24T05:01:23.112Z,8.87
2022-09-24T05:03:53.184Z,8.87
2022-09-24T05:06:22.448Z,8.89
2022-09-24T05:08:51.565Z,8.91
2022-09-24T05:11:20.676Z,8.95
2022-09-24T05:13:49.797Z,8.98
2022-09-24T05:16:20.395Z,9.00
2022-09-24T05:18:49.570Z,9.02
2022-09-24T05:21:18.654Z,9.02
2022-09-24T05:23:47.762Z,9.03
2022-09-24T05:26:34.490Z,9.05
2022-09-24T05:29:03.776Z,9.05
2022-09-24T05:31:34.314Z,9.06
2022-09-24T05:34:03.717Z,9.09
2022-09-24T05:36:32.827Z,9.11
2022-09-24T05:39:02.021Z,9.10
2022-09-24T05:41:31.189Z,9.13
2022-09-24T05:44:00.266Z,9.15
2022-09-24T05:46:30.078Z,9.19
2022-09-24T05:49:00.650Z,9.20
2022-09-24T05:51:29.996Z,9.27
2022-09-24T05:53:59.180Z,9.30
2022-09-24T05:56:28.265Z,9.35
2022-09-24T05:58:57.384Z,9.38
2022-09-24T06:01:26.712Z,9.43
2022-09-24T06:03:56.368Z,9.48
2022-09-24T06:06:27.638Z,9.50
2022-09-24T06:08:57.325Z,9.55
2022-09-24T06:11:28.079Z,9.61
2022-09-24T06:13:57.270Z,9.67
2022-09-24T06:16:26.458Z,9.71
2022-09-24T06:18:55.594Z,9.77
2022-09-24T06:21:26.078Z,9.82
2022-09-24T06:23:55.386Z,9.88
2022-09-24T06:26:26.149Z,9.96
2022-09-24T06:28:58.474Z,10.01
2022-09-24T06:31:30.286Z,10.04
2022-09-24T06:34:00.342Z,10.06
2022-09-24T06:36:30.978Z,10.11
2022-09-24T06:39:00.374Z,10.14
2022-09-24T06:41:29.732Z,10.20
2022-09-24T06:43:59.384Z,10.29
2022-09-24T06:46:28.656Z,10.37
2022-09-24T06:48:57.950Z,10.44
2022-09-24T06:51:27.341Z,10.51
2022-09-24T06:53:58.109Z,10.61
2022-09-24T06:56:27.625Z,10.73
2022-09-24T06:58:56.982Z,10.88
2022-09-24T07:01:26.523Z,10.95
2022-09-24T07:03:56.010Z,11.04
2022-09-24T07:06:25.392Z,11.10
2022-09-24T07:08:56.539Z,11.18
2022-09-24T07:11:28.834Z,11.24
2022-09-24T07:13:58.194Z,11.31
2022-09-24T07:16:27.666Z,11.35
2022-09-24T07:18:57.437Z,11.39
2022-09-24T07:21:26.783Z,11.54
2022-09-24T07:23:58.592Z,11.58
2022-09-24T07:26:31.481Z,11.65
2022-09-24T07:29:00.854Z,11.69
2022-09-24T07:31:31.610Z,11.75
2022-09-24T07:34:01.091Z,11.81
2022-09-24T07:36:30.954Z,11.94
2022-09-24T07:39:01.209Z,11.97
2022-09-24T07:41:36.360Z,12.04
2022-09-24T07:44:09.829Z,12.11
2022-09-24T07:46:39.449Z,12.09
2022-09-24T07:49:08.945Z,12.16
2022-09-24T07:51:38.284Z,12.16
2022-09-24T07:54:08.172Z,12.22
2022-09-24T07:56:39.263Z,12.28
2022-09-24T07:59:11.124Z,12.31
2022-09-24T08:01:40.806Z,12.38
2022-09-24T08:04:10.532Z,12.43
2022-09-24T08:06:45.037Z,12.49
2022-09-24T08:09:17.510Z,12.51
2022-09-24T08:11:51.154Z,12.56
2022-09-24T08:14:20.485Z,12.56
2022-09-24T08:16:49.866Z,12.55
2022-09-24T08:19:19.253Z,12.58
2022-09-24T08:21:49.057Z,12.62
2022-09-24T08:24:18.416Z,12.69
2022-09-24T08:26:49.109Z,12.78
2022-09-24T08:29:18.493Z,12.78
2022-09-24T08:31:47.873Z,12.86
2022-09-24T08:34:17.288Z,12.88
2022-09-24T08:36:46.656Z,12.94
2022-09-24T08:39:16.195Z,12.98
2022-09-24T08:41:57.047Z,13.05
2022-09-24T08:44:53.608Z,13.12
2022-09-24T08:47:37.726Z,13.24
2022-09-24T08:50:17.358Z,13.30
2022-09-24T08:53:06.481Z,13.39
2022-09-24T08:55:42.259Z,13.47
2022-09-24T08:58:44.120Z,13.49
2022-09-24T09:01:32.632Z,13.59
2022-09-24T09:04:20.198Z,13.65
2022-09-24T09:07:09.612Z,13.67
2022-09-24T09:09:50.634Z,13.74
2022-09-24T09:12:27.015Z,13.87
2022-09-24T09:15:03.760Z,13.91
2022-09-24T09:17:45.244Z,13.98
2022-09-24T09:20:22.616Z,14.02
2022-09-24T09:22:54.679Z,14.05
2022-09-24T09:25:28.489Z,14.08
2022-09-24T09:28:03.364Z,14.08
2022-09-24T09:30:44.021Z,14.13
2022-09-24T09:33:40.010Z,14.17
2022-09-24T09:36:34.110Z,14.14
2022-09-24T09:39:23.608Z,14.06
2022-09-24T09:42:04.965Z,13.98
2022-09-24T09:44:43.060Z,13.97
2022-09-24T09:47:35.899Z,13.92
2022-09-24T09:50:20.616Z,13.87
2022-09-24T09:52:50.231Z,13.85
2022-09-24T09:55:27.822Z,13.86
2022-09-24T09:58:18.881Z,13.79
2022-09-24T10:00:49.775Z,13.75
2022-09-24T10:03:31.868Z,13.74
2022-09-24T10:06:04.741Z,13.76
2022-09-24T10:08:34.430Z,13.73
2022-09-24T10:11:05.047Z,13.72
2022-09-24T10:13:35.150Z,13.72
2022-09-24T10:16:10.378Z,13.73
2022-09-24T10:18:50.061Z,13.75
2022-09-24T10:21:34.341Z,13.67
2022-09-24T10:24:12.795Z,13.73
2022-09-24T10:26:45.817Z,13.68
2022-09-24T10:29:35.401Z,13.69
2022-09-24T10:32:07.459Z,13.75
2022-09-24T10:34:38.262Z,13.81
2022-09-24T10:37:18.913Z,13.91
2022-09-24T10:40:00.294Z,13.97
2022-09-24T10:42:31.719Z,14.07
2022-09-24T10:45:03.497Z,14.10
2022-09-24T10:47:44.421Z,14.03
2022-09-24T10:50:32.693Z,14.05
2022-09-24T10:53:09.773Z,14.10
2022-09-24T10:55:54.086Z,14.17
2022-09-24T10:58:53.171Z,14.23
2022-09-24T11:01:38.689Z,14.22
2022-09-24T11:04:44.398Z,14.26
2022-09-24T11:07:56.480Z,14.17
2022-09-24T11:10:53.991Z,14.11
2022-09-24T11:13:34.231Z,14.08
2022-09-24T11:17:03.205Z,14.05
2022-09-24T11:20:00.227Z,14.02
2022-09-24T11:22:53.153Z,14.04
2022-09-24T11:25:38.175Z,14.04
2022-09-24T11:28:30.718Z,14.03
2022-09-24T11:31:18.700Z,14.04
2022-09-24T11:34:15.709Z,14.01
2022-09-24T11:37:06.041Z,14.05
2022-09-24T11:40:00.882Z,13.98
2022-09-24T11:42:38.938Z,13.96
2022-09-24T11:45:37.915Z,13.95
2022-09-24T11:48:44.409Z,13.93
2022-09-24T11:51:30.006Z,13.95
2022-09-24T11:54:05.196Z,13.99
2022-09-24T11:56:42.976Z,14.04
2022-09-24T11:59:25.246Z,14.06
2022-09-24T12:02:04.424Z,14.06
2022-09-24T12:04:53.285Z,14.06
2022-09-24T12:07:34.237Z,14.06
2022-09-24T12:10:29.772Z,14.05
2022-09-24T12:13:13.530Z,14.11
2022-09-24T12:15:53.703Z,14.08
2022-09-24T12:18:27.592Z,14.09
2022-09-24T12:21:02.486Z,14.14
2022-09-24T12:23:36.470Z,14.17
2022-09-24T12:26:07.609Z,14.22
2022-09-24T12:29:13.793Z,14.29
2022-09-24T12:32:12.705Z,14.33
2022-09-24T12:34:54.673Z,14.32
2022-09-24T12:37:32.969Z,14.31
2022-09-24T12:40:19.227Z,14.33
2022-09-24T12:42:55.035Z,14.37
2022-09-24T12:45:27.767Z,14.40
2022-09-24T12:48:00.897Z,14.52
2022-09-24T12:50:33.650Z,14.68
2022-09-24T12:53:03.151Z,14.89
2022-09-24T12:55:35.808Z,15.03
2022-09-24T12:58:07.750Z,15.20
2022-09-24T13:00:45.787Z,15.35
2022-09-24T13:03:34.539Z,15.39
2022-09-24T13:06:19.190Z,15.41
2022-09-24T13:08:48.730Z,15.30
2022-09-24T13:11:34.788Z,15.22
2022-09-24T13:14:21.614Z,15.20
2022-09-24T13:16:53.674Z,15.19
2022-09-24T13:19:37.213Z,15.24
2022-09-24T13:22:07.899Z,15.37
2022-09-24T13:24:50.472Z,15.49
2022-09-24T13:27:37.717Z,15.56
2022-09-24T13:30:20.054Z,15.53
2022-09-24T13:33:00.388Z,15.50
2022-09-24T13:35:36.819Z,15.44
2022-09-24T13:38:19.554Z,15.38
2022-09-24T13:41:01.604Z,15.29
2022-09-24T13:43:45.320Z,15.21
2022-09-24T13:46:18.986Z,15.17
2022-09-24T13:48:54.447Z,15.18
2022-09-24T13:51:29.883Z,15.26
2022-09-24T13:54:04.904Z,15.37
2022-09-24T13:56:34.277Z,15.55
2022-09-24T13:59:12.613Z,15.64
2022-09-24T14:01:44.617Z,15.70
2022-09-24T14:04:22.058Z,15.81
2022-09-24T14:06:55.483Z,15.82
2022-09-24T14:09:32.463Z,15.89
2022-09-24T14:12:04.433Z,15.96
2022-09-24T14:14:36.564Z,16.06
2022-09-24T14:17:09.907Z,16.00
2022-09-24T14:19:40.432Z,15.89
2022-09-24T14:22:16.698Z,15.72
2022-09-24T14:24:52.324Z,15.65
2022-09-24T14:27:23.387Z,15.54
2022-09-24T14:29:56.659Z,15.44
2022-09-24T14:32:29.668Z,15.37
2022-09-24T14:35:02.707Z,15.32
2022-09-24T14:37:34.457Z,15.23
2022-09-24T14:40:09.164Z,15.13
2022-09-24T14:42:41.872Z,15.03
2022-09-24T14:45:11.730Z,14.95
2022-09-24T14:47:40.816Z,14.88
2022-09-24T14:50:35.600Z,14.81
2022-09-24T14:53:14.765Z,14.73
2022-09-24T14:55:46.369Z,14.68
2022-09-24T14:58:33.023Z,14.64
2022-09-24T15:01:05.408Z,14.57
2022-09-24T15:03:40.856Z,14.52
2022-09-24T15:06:22.328Z,14.45
2022-09-24T15:09:01.685Z,14.40
2022-09-24T15:11:34.157Z,14.38
2022-09-24T15:14:15.623Z,14.34
2022-09-24T15:16:47.075Z,14.27
2022-09-24T15:19:20.445Z,14.26
2022-09-24T15:21:54.189Z,14.23
2022-09-24T15:24:24.935Z,14.15
2022-09-24T15:27:02.583Z,14.08
2022-09-24T15:29:32.600Z,14.06
2022-09-24T15:32:02.765Z,14.04
2022-09-24T15:34:32.116Z,14.00
2022-09-24T15:37:02.870Z,13.99
2022-09-24T15:39:32.405Z,13.96
2022-09-24T15:42:01.813Z,13.95
2022-09-24T15:44:34.019Z,13.92
2022-09-24T15:47:03.835Z,13.92
2022-09-24T15:49:33.196Z,13.93
2022-09-24T15:52:10.530Z,13.98
2022-09-24T15:54:40.257Z,14.03
2022-09-24T15:57:13.655Z,14.05
2022-09-24T15:59:43.058Z,14.09
2022-09-24T16:02:22.395Z,14.10
2022-09-24T16:04:52.134Z,14.12
2022-09-24T16:07:22.934Z,14.13
2022-09-24T16:09:52.638Z,14.13
2022-09-24T16:12:27.809Z,14.09
2022-09-24T16:14:59.156Z,14.06
2022-09-24T16:17:29.830Z,14.04
2022-09-24T16:19:59.324Z,14.01
2022-09-24T16:22:30.179Z,13.98
2022-09-24T16:24:59.666Z,13.94
2022-09-24T16:27:29.734Z,13.90
2022-09-24T16:29:59.160Z,13.86
2022-09-24T16:32:28.530Z,13.85
2022-09-24T16:34:57.918Z,13.80
2022-09-24T16:37:29.321Z,13.77
2022-09-24T16:39:58.761Z,13.74
2022-09-24T16:42:28.196Z,13.69
2022-09-24T16:44:57.563Z,13.63
2022-09-24T16:47:26.998Z,13.59
2022-09-24T16:49:56.399Z,13.57
2022-09-24T16:52:25.897Z,13.51
2022-09-24T16:54:56.620Z,13.50
2022-09-24T16:57:26.024Z,13.44
2022-09-24T16:59:55.408Z,13.40
2022-09-24T17:02:25.600Z,13.38
2022-09-24T17:04:59.321Z,13.34
2022-09-24T17:07:31.938Z,13.31
2022-09-24T17:10:13.664Z,13.28
2022-09-24T17:12:46.150Z,13.23
2022-09-24T17:15:20.348Z,13.15
2022-09-24T17:17:50.761Z,13.12
2022-09-24T17:20:21.231Z,13.09
2022-09-24T17:22:50.599Z,13.06
2022-09-24T17:25:21.332Z,13.05
2022-09-24T17:27:50.730Z,13.02
2022-09-24T17:30:20.605Z,12.97
2022-09-24T17:32:49.988Z,12.91
2022-09-24T17:35:19.482Z,12.84
2022-09-24T17:37:48.848Z,12.80
2022-09-24T17:40:23.894Z,12.76
2022-09-24T17:42:54.039Z,12.74
2022-09-24T17:45:23.442Z,12.70
2022-09-24T17:48:00.330Z,12.67
2022-09-24T17:50:30.063Z,12.65
2022-09-24T17:52:59.889Z,12.64
2022-09-24T17:55:30.970Z,12.63
2022-09-24T17:58:00.377Z,12.58
2022-09-24T18:00:29.760Z,12.57
2022-09-24T18:02:59.338Z,12.53
2022-09-24T18:05:28.802Z,12.52
2022-09-24T18:07:58.176Z,12.51
2022-09-24T18:10:27.589Z,12.48
2022-09-24T18:12:59.222Z,12.47
2022-09-24T18:15:29.667Z,12.46
2022-09-24T18:17:59.140Z,12.45
2022-09-24T18:20:29.190Z,12.43
2022-09-24T18:22:58.634Z,12.42
2022-09-24T18:25:28.407Z,12.40
2022-09-24T18:28:00.843Z,12.39
2022-09-24T18:30:30.394Z,12.36
2022-09-24T18:32:59.759Z,12.34
2022-09-24T18:35:29.122Z,12.34
2022-09-24T18:37:58.541Z,12.32
2022-09-24T18:40:28.070Z,12.31
2022-09-24T18:42:59.100Z,12.27
2022-09-24T18:45:28.479Z,12.26
2022-09-24T18:47:57.861Z,12.23
2022-09-24T18:50:28.381Z,12.20
2022-09-24T18:52:57.810Z,12.17
2022-09-24T18:55:27.293Z,12.16
2022-09-24T18:57:58.039Z,12.15
2022-09-24T19:00:45.084Z,12.15
2022-09-24T19:03:14.593Z,12.12
2022-09-24T19:05:43.968Z,12.10
2022-09-24T19:08:13.802Z,12.13
2022-09-24T19:10:43.931Z,12.10
2022-09-24T19:13:15.282Z,12.10
2022-09-24T19:15:44.974Z,12.10
2022-09-24T19:18:18.118Z,12.08
